sensor_id;sensor_type;location;lat;lon;timestamp;temperature;humidity
37340;DHT22;23223;51.006;7.610;2023-11-19T00:02:08;9.40;99.90
37340;DHT22;23223;51.006;7.610;2023-11-19T00:04:37;9.40;99.90
37340;DHT22;23223;51.006;7.610;2023-11-19T00:07:05;9.40;99.90
37340;DHT22;23223;51.006;7.610;2023-11-19T00:09:32;9.40;99.90
37340;DHT22;23223;51.006;7.610;2023-11-19T00:11:58;9.40;99.90
37340;DHT22;23223;51.006;7.610;2023-11-19T00:14:26;9.30;99.90
37340;DHT22;23223;51.006;7.610;2023-11-19T00:16:51;9.10;99.90
37340;DHT22;23223;51.006;7.610;2023-11-19T00:19:17;9.00;99.90
37340;DHT22;23223;51.006;7.610;2023-11-19T00:21:42;9.00;99.90
37340;DHT22;23223;51.006;7.610;2023-11-19T00:24:09;9.00;99.90
37340;DHT22;23223;51.006;7.610;2023-11-19T00:26:34;9.10;99.90
37340;DHT22;23223;51.006;7.610;2023-11-19T00:29:00;9.10;99.90
37340;DHT22;23223;51.006;7.610;2023-11-19T00:31:26;9.10;99.90
37340;DHT22;23223;51.006;7.610;2023-11-19T00:33:53;9.20;99.90
37340;DHT22;23223;51.006;7.610;2023-11-19T00:36:19;9.20;99.90
37340;DHT22;23223;51.006;7.610;2023-11-19T00:38:44;9.30;99.90
37340;DHT22;23223;51.006;7.610;2023-11-19T00:41:10;9.30;99.90
37340;DHT22;23223;51.006;7.610;2023-11-19T00:43:36;9.30;99.90
37340;DHT22;23223;51.006;7.610;2023-11-19T00:46:02;9.30;99.90
37340;DHT22;23223;51.006;7.610;2023-11-19T00:48:28;9.40;99.90
37340;DHT22;23223;51.006;7.610;2023-11-19T00:50:54;9.50;99.90
37340;DHT22;23223;51.006;7.610;2023-11-19T00:53:19;9.50;99.90
37340;DHT22;23223;51.006;7.610;2023-11-19T00:55:45;9.50;99.90
37340;DHT22;23223;51.006;7.610;2023-11-19T00:58:10;9.50;99.90
37340;DHT22;23223;51.006;7.610;2023-11-19T01:00:36;9.50;99.90
37340;DHT22;23223;51.006;7.610;2023-11-19T01:03:02;9.40;99.90
37340;DHT22;23223;51.006;7.610;2023-11-19T01:05:27;9.40;99.90
37340;DHT22;23223;51.006;7.610;2023-11-19T01:07:54;9.60;99.90
37340;DHT22;23223;51.006;7.610;2023-11-19T01:10:19;9.70;99.90
37340;DHT22;23223;51.006;7.610;2023-11-19T01:12:46;9.60;99.90
37340;DHT22;23223;51.006;7.610;2023-11-19T01:15:11;9.70;99.90
37340;DHT22;23223;51.006;7.610;2023-11-19T01:17:38;9.70;99.90
37340;DHT22;23223;51.006;7.610;2023-11-19T01:20:04;9.70;99.90
37340;DHT22;23223;51.006;7.610;2023-11-19T01:22:32;9.70;99.90
37340;DHT22;23223;51.006;7.610;2023-11-19T01:24:58;9.80;99.90
37340;DHT22;23223;51.006;7.610;2023-11-19T01:27:26;9.90;99.90
37340;DHT22;23223;51.006;7.610;2023-11-19T01:29:52;10.00;99.90
37340;DHT22;23223;51.006;7.610;2023-11-19T01:32:17;10.10;99.90
37340;DHT22;23223;51.006;7.610;2023-11-19T01:34:43;10.00;99.90
37340;DHT22;23223;51.006;7.610;2023-11-19T01:37:08;9.90;99.90
37340;DHT22;23223;51.006;7.610;2023-11-19T01:39:38;9.70;99.90
37340;DHT22;23223;51.006;7.610;2023-11-19T01:42:03;9.60;99.90
37340;DHT22;23223;51.006;7.610;2023-11-19T01:44:29;9.70;99.90
37340;DHT22;23223;51.006;7.610;2023-11-19T01:46:55;9.80;99.90
37340;DHT22;23223;51.006;7.610;2023-11-19T01:49:20;9.80;99.90
37340;DHT22;23223;51.006;7.610;2023-11-19T01:51:47;9.80;99.90
37340;DHT22;23223;51.006;7.610;2023-11-19T01:54:14;9.80;99.90
37340;DHT22;23223;51.006;7.610;2023-11-19T01:56:41;9.90;99.90
37340;DHT22;23223;51.006;7.610;2023-11-19T01:59:07;10.00;99.90
37340;DHT22;23223;51.006;7.610;2023-11-19T02:01:35;10.00;99.90
37340;DHT22;23223;51.006;7.610;2023-11-19T02:04:06;10.00;99.90
37340;DHT22;23223;51.006;7.610;2023-11-19T02:06:34;9.90;99.90
37340;DHT22;23223;51.006;7.610;2023-11-19T02:09:00;9.90;99.90
37340;DHT22;23223;51.006;7.610;2023-11-19T02:11:26;9.90;99.90
37340;DHT22;23223;51.006;7.610;2023-11-19T02:13:55;9.90;99.90
37340;DHT22;23223;51.006;7.610;2023-11-19T02:16:21;9.90;99.90
37340;DHT22;23223;51.006;7.610;2023-11-19T02:18:47;9.90;99.90
37340;DHT22;23223;51.006;7.610;2023-11-19T02:21:13;9.90;99.90
37340;DHT22;23223;51.006;7.610;2023-11-19T02:23:40;10.00;99.90
37340;DHT22;23223;51.006;7.610;2023-11-19T02:26:28;10.10;99.90
37340;DHT22;23223;51.006;7.610;2023-11-19T02:28:54;10.10;99.90
37340;DHT22;23223;51.006;7.610;2023-11-19T02:31:20;10.10;99.90
37340;DHT22;23223;51.006;7.610;2023-11-19T02:33:45;10.30;99.90
37340;DHT22;23223;51.006;7.610;2023-11-19T02:36:11;10.20;99.90
37340;DHT22;23223;51.006;7.610;2023-11-19T02:38:37;10.20;99.90
37340;DHT22;23223;51.006;7.610;2023-11-19T02:41:06;10.20;99.90
37340;DHT22;23223;51.006;7.610;2023-11-19T02:43:36;10.20;99.90
37340;DHT22;23223;51.006;7.610;2023-11-19T02:46:05;10.20;99.90
37340;DHT22;23223;51.006;7.610;2023-11-19T02:48:34;10.20;99.90
37340;DHT22;23223;51.006;7.610;2023-11-19T02:51:01;10.30;99.90
37340;DHT22;23223;51.006;7.610;2023-11-19T02:53:29;10.40;99.90
37340;DHT22;23223;51.006;7.610;2023-11-19T02:55:54;10.30;99.90
37340;DHT22;23223;51.006;7.610;2023-11-19T02:58:29;10.40;99.90
37340;DHT22;23223;51.006;7.610;2023-11-19T03:00:55;10.40;99.90
37340;DHT22;23223;51.006;7.610;2023-11-19T03:03:25;10.50;99.90
37340;DHT22;23223;51.006;7.610;2023-11-19T03:05:54;10.40;99.90
37340;DHT22;23223;51.006;7.610;2023-11-19T03:08:20;10.50;99.90
37340;DHT22;23223;51.006;7.610;2023-11-19T03:10:46;10.50;99.90
37340;DHT22;23223;51.006;7.610;2023-11-19T03:13:13;10.50;99.90
37340;DHT22;23223;51.006;7.610;2023-11-19T03:15:42;10.50;99.90
37340;DHT22;23223;51.006;7.610;2023-11-19T03:18:08;10.50;99.90
37340;DHT22;23223;51.006;7.610;2023-11-19T03:20:34;10.60;99.90
37340;DHT22;23223;51.006;7.610;2023-11-19T03:23:00;10.60;99.90
37340;DHT22;23223;51.006;7.610;2023-11-19T03:25:27;10.60;99.90
37340;DHT22;23223;51.006;7.610;2023-11-19T03:27:59;10.60;99.90
37340;DHT22;23223;51.006;7.610;2023-11-19T03:30:24;10.70;99.90
37340;DHT22;23223;51.006;7.610;2023-11-19T03:32:50;10.70;99.90
37340;DHT22;23223;51.006;7.610;2023-11-19T03:35:16;10.70;99.90
37340;DHT22;23223;51.006;7.610;2023-11-19T03:37:42;10.60;99.90
37340;DHT22;23223;51.006;7.610;2023-11-19T03:40:09;10.60;99.90
37340;DHT22;23223;51.006;7.610;2023-11-19T03:42:35;10.70;99.90
37340;DHT22;23223;51.006;7.610;2023-11-19T03:45:01;10.70;99.90
37340;DHT22;23223;51.006;7.610;2023-11-19T03:47:29;10.60;99.90
37340;DHT22;23223;51.006;7.610;2023-11-19T03:49:54;10.70;99.90
37340;DHT22;23223;51.006;7.610;2023-11-19T03:52:20;10.70;99.90
37340;DHT22;23223;51.006;7.610;2023-11-19T03:54:46;10.60;99.90
37340;DHT22;23223;51.006;7.610;2023-11-19T03:57:14;10.70;99.90
37340;DHT22;23223;51.006;7.610;2023-11-19T03:59:41;10.70;99.90
37340;DHT22;23223;51.006;7.610;2023-11-19T04:02:07;10.70;99.90
37340;DHT22;23223;51.006;7.610;2023-11-19T04:04:32;10.70;99.90
37340;DHT22;23223;51.006;7.610;2023-11-19T04:06:58;10.70;99.90
37340;DHT22;23223;51.006;7.610;2023-11-19T04:09:26;10.70;99.90
37340;DHT22;23223;51.006;7.610;2023-11-19T04:11:51;10.70;99.90
37340;DHT22;23223;51.006;7.610;2023-11-19T04:14:17;10.70;99.90
37340;DHT22;23223;51.006;7.610;2023-11-19T04:16:44;10.80;99.90
37340;DHT22;23223;51.006;7.610;2023-11-19T04:19:10;10.80;99.90
37340;DHT22;23223;51.006;7.610;2023-11-19T04:21:36;10.80;99.90
37340;DHT22;23223;51.006;7.610;2023-11-19T04:24:02;10.80;99.90
37340;DHT22;23223;51.006;7.610;2023-11-19T04:26:27;10.90;99.90
37340;DHT22;23223;51.006;7.610;2023-11-19T04:28:53;10.80;99.90
37340;DHT22;23223;51.006;7.610;2023-11-19T04:31:18;10.90;99.90
37340;DHT22;23223;51.006;7.610;2023-11-19T04:33:44;10.90;99.90
37340;DHT22;23223;51.006;7.610;2023-11-19T04:36:10;10.90;99.90
37340;DHT22;23223;51.006;7.610;2023-11-19T04:38:37;10.90;99.90
37340;DHT22;23223;51.006;7.610;2023-11-19T04:41:04;10.90;99.90
37340;DHT22;23223;51.006;7.610;2023-11-19T04:43:31;10.90;99.90
37340;DHT22;23223;51.006;7.610;2023-11-19T04:45:57;11.00;99.90
37340;DHT22;23223;51.006;7.610;2023-11-19T04:48:23;11.00;99.90
37340;DHT22;23223;51.006;7.610;2023-11-19T04:50:49;11.00;99.90
37340;DHT22;23223;51.006;7.610;2023-11-19T04:53:16;11.00;99.90
37340;DHT22;23223;51.006;7.610;2023-11-19T04:55:42;11.00;99.90
37340;DHT22;23223;51.006;7.610;2023-11-19T04:58:08;11.00;99.90
37340;DHT22;23223;51.006;7.610;2023-11-19T05:00:34;11.00;99.90
37340;DHT22;23223;51.006;7.610;2023-11-19T05:03:00;11.00;99.90
37340;DHT22;23223;51.006;7.610;2023-11-19T05:05:25;11.10;99.90
37340;DHT22;23223;51.006;7.610;2023-11-19T05:07:51;11.10;99.90
37340;DHT22;23223;51.006;7.610;2023-11-19T05:10:17;11.10;99.90
37340;DHT22;23223;51.006;7.610;2023-11-19T05:12:42;11.10;99.90
37340;DHT22;23223;51.006;7.610;2023-11-19T05:15:08;11.10;99.90
37340;DHT22;23223;51.006;7.610;2023-11-19T05:17:34;11.10;99.90
37340;DHT22;23223;51.006;7.610;2023-11-19T05:20:00;11.10;99.90
37340;DHT22;23223;51.006;7.610;2023-11-19T05:22:25;11.20;99.90
37340;DHT22;23223;51.006;7.610;2023-11-19T05:24:51;11.20;99.90
37340;DHT22;23223;51.006;7.610;2023-11-19T05:27:17;11.20;99.90
37340;DHT22;23223;51.006;7.610;2023-11-19T05:29:43;11.20;99.90
37340;DHT22;23223;51.006;7.610;2023-11-19T05:32:09;11.20;99.90
37340;DHT22;23223;51.006;7.610;2023-11-19T05:34:35;11.20;99.90
37340;DHT22;23223;51.006;7.610;2023-11-19T05:37:01;11.20;99.90
37340;DHT22;23223;51.006;7.610;2023-11-19T05:39:28;11.30;99.90
37340;DHT22;23223;51.006;7.610;2023-11-19T05:41:53;11.30;99.90
37340;DHT22;23223;51.006;7.610;2023-11-19T05:44:19;11.30;99.90
37340;DHT22;23223;51.006;7.610;2023-11-19T05:46:45;11.30;99.90
37340;DHT22;23223;51.006;7.610;2023-11-19T05:49:11;11.30;99.90
37340;DHT22;23223;51.006;7.610;2023-11-19T05:51:40;11.40;99.90
37340;DHT22;23223;51.006;7.610;2023-11-19T05:54:10;11.30;99.90
37340;DHT22;23223;51.006;7.610;2023-11-19T05:56:36;11.30;99.90
37340;DHT22;23223;51.006;7.610;2023-11-19T05:59:01;11.30;99.90
37340;DHT22;23223;51.006;7.610;2023-11-19T06:01:29;11.40;99.90
37340;DHT22;23223;51.006;7.610;2023-11-19T06:03:55;11.30;99.90
37340;DHT22;23223;51.006;7.610;2023-11-19T06:06:20;11.30;99.90
37340;DHT22;23223;51.006;7.610;2023-11-19T06:08:46;11.30;99.90
37340;DHT22;23223;51.006;7.610;2023-11-19T06:11:12;11.30;99.90
37340;DHT22;23223;51.006;7.610;2023-11-19T06:13:44;11.20;99.90
37340;DHT22;23223;51.006;7.610;2023-11-19T06:16:10;11.30;99.90
37340;DHT22;23223;51.006;7.610;2023-11-19T06:18:36;11.20;99.90
37340;DHT22;23223;51.006;7.610;2023-11-19T06:21:02;11.20;99.90
37340;DHT22;23223;51.006;7.610;2023-11-19T06:23:28;11.20;99.90
37340;DHT22;23223;51.006;7.610;2023-11-19T06:25:53;11.20;99.90
37340;DHT22;23223;51.006;7.610;2023-11-19T06:28:19;11.20;99.90
37340;DHT22;23223;51.006;7.610;2023-11-19T06:30:45;11.10;99.90
37340;DHT22;23223;51.006;7.610;2023-11-19T06:33:14;11.10;99.90
37340;DHT22;23223;51.006;7.610;2023-11-19T06:35:40;11.20;99.90
37340;DHT22;23223;51.006;7.610;2023-11-19T06:38:05;11.20;99.90
37340;DHT22;23223;51.006;7.610;2023-11-19T06:40:34;11.10;99.90
37340;DHT22;23223;51.006;7.610;2023-11-19T06:43:03;11.10;99.90
37340;DHT22;23223;51.006;7.610;2023-11-19T06:45:29;11.10;99.90
37340;DHT22;23223;51.006;7.610;2023-11-19T06:47:55;11.10;99.90
37340;DHT22;23223;51.006;7.610;2023-11-19T06:50:21;11.10;99.90
37340;DHT22;23223;51.006;7.610;2023-11-19T06:52:46;11.10;99.90
37340;DHT22;23223;51.006;7.610;2023-11-19T06:55:12;11.10;99.90
37340;DHT22;23223;51.006;7.610;2023-11-19T06:57:38;11.10;99.90
37340;DHT22;23223;51.006;7.610;2023-11-19T07:00:05;11.10;99.90
37340;DHT22;23223;51.006;7.610;2023-11-19T07:02:31;11.10;99.90
37340;DHT22;23223;51.006;7.610;2023-11-19T07:04:57;11.10;99.90
37340;DHT22;23223;51.006;7.610;2023-11-19T07:07:22;11.10;99.90
37340;DHT22;23223;51.006;7.610;2023-11-19T07:09:48;11.10;99.90
37340;DHT22;23223;51.006;7.610;2023-11-19T07:12:14;11.20;99.90
37340;DHT22;23223;51.006;7.610;2023-11-19T07:14:40;11.00;99.90
37340;DHT22;23223;51.006;7.610;2023-11-19T07:17:07;11.10;99.90
37340;DHT22;23223;51.006;7.610;2023-11-19T07:19:34;11.00;99.90
37340;DHT22;23223;51.006;7.610;2023-11-19T07:22:01;11.00;99.90
37340;DHT22;23223;51.006;7.610;2023-11-19T07:24:27;11.00;99.90
37340;DHT22;23223;51.006;7.610;2023-11-19T07:26:53;11.00;99.90
37340;DHT22;23223;51.006;7.610;2023-11-19T07:29:19;11.00;99.90
37340;DHT22;23223;51.006;7.610;2023-11-19T07:31:48;11.00;99.90
37340;DHT22;23223;51.006;7.610;2023-11-19T07:34:14;11.00;99.90
37340;DHT22;23223;51.006;7.610;2023-11-19T07:36:39;11.00;99.90
37340;DHT22;23223;51.006;7.610;2023-11-19T07:39:05;11.10;99.90
37340;DHT22;23223;51.006;7.610;2023-11-19T07:41:31;11.00;99.90
37340;DHT22;23223;51.006;7.610;2023-11-19T07:43:57;11.10;99.90
37340;DHT22;23223;51.006;7.610;2023-11-19T07:46:22;11.00;99.90
37340;DHT22;23223;51.006;7.610;2023-11-19T07:48:48;11.10;99.90
37340;DHT22;23223;51.006;7.610;2023-11-19T07:51:14;11.10;99.90
37340;DHT22;23223;51.006;7.610;2023-11-19T07:53:40;11.00;99.90
37340;DHT22;23223;51.006;7.610;2023-11-19T07:56:07;11.10;99.90
37340;DHT22;23223;51.006;7.610;2023-11-19T07:58:33;11.10;99.90
37340;DHT22;23223;51.006;7.610;2023-11-19T08:00:58;11.20;99.90
37340;DHT22;23223;51.006;7.610;2023-11-19T08:03:24;11.20;99.90
37340;DHT22;23223;51.006;7.610;2023-11-19T08:05:49;11.20;99.90
37340;DHT22;23223;51.006;7.610;2023-11-19T08:08:16;11.20;99.90
37340;DHT22;23223;51.006;7.610;2023-11-19T08:10:42;11.10;99.90
37340;DHT22;23223;51.006;7.610;2023-11-19T08:13:08;11.10;99.90
37340;DHT22;23223;51.006;7.610;2023-11-19T08:15:34;11.10;99.90
37340;DHT22;23223;51.006;7.610;2023-11-19T08:18:00;11.10;99.90
37340;DHT22;23223;51.006;7.610;2023-11-19T08:20:25;11.00;99.90
37340;DHT22;23223;51.006;7.610;2023-11-19T08:22:51;11.00;99.90
37340;DHT22;23223;51.006;7.610;2023-11-19T08:25:16;11.00;99.90
37340;DHT22;23223;51.006;7.610;2023-11-19T08:27:42;11.00;99.90
37340;DHT22;23223;51.006;7.610;2023-11-19T08:30:08;11.00;99.90
37340;DHT22;23223;51.006;7.610;2023-11-19T08:32:34;11.10;99.90
37340;DHT22;23223;51.006;7.610;2023-11-19T08:34:59;11.20;99.90
37340;DHT22;23223;51.006;7.610;2023-11-19T08:37:25;11.30;99.90
37340;DHT22;23223;51.006;7.610;2023-11-19T08:39:51;11.50;99.90
37340;DHT22;23223;51.006;7.610;2023-11-19T08:42:17;11.70;99.90
37340;DHT22;23223;51.006;7.610;2023-11-19T08:44:43;11.80;99.90
37340;DHT22;23223;51.006;7.610;2023-11-19T08:47:12;11.90;99.90
37340;DHT22;23223;51.006;7.610;2023-11-19T08:49:41;12.00;99.90
37340;DHT22;23223;51.006;7.610;2023-11-19T08:52:06;12.00;99.90
37340;DHT22;23223;51.006;7.610;2023-11-19T08:54:33;11.90;99.90
37340;DHT22;23223;51.006;7.610;2023-11-19T08:56:59;11.90;99.90
37340;DHT22;23223;51.006;7.610;2023-11-19T08:59:25;11.90;99.90
37340;DHT22;23223;51.006;7.610;2023-11-19T09:01:50;12.00;99.90
37340;DHT22;23223;51.006;7.610;2023-11-19T09:04:16;11.90;99.90
37340;DHT22;23223;51.006;7.610;2023-11-19T09:06:42;12.00;99.90
37340;DHT22;23223;51.006;7.610;2023-11-19T09:09:08;11.90;99.90
37340;DHT22;23223;51.006;7.610;2023-11-19T09:11:35;11.90;99.90
37340;DHT22;23223;51.006;7.610;2023-11-19T09:14:00;11.90;99.90
37340;DHT22;23223;51.006;7.610;2023-11-19T09:16:26;11.90;99.90
37340;DHT22;23223;51.006;7.610;2023-11-19T09:18:51;11.90;99.90
37340;DHT22;23223;51.006;7.610;2023-11-19T09:21:17;11.90;99.90
37340;DHT22;23223;51.006;7.610;2023-11-19T09:23:43;11.90;99.90
37340;DHT22;23223;51.006;7.610;2023-11-19T09:26:09;12.00;99.90
37340;DHT22;23223;51.006;7.610;2023-11-19T09:28:37;12.00;99.90
37340;DHT22;23223;51.006;7.610;2023-11-19T09:31:03;12.00;99.90
37340;DHT22;23223;51.006;7.610;2023-11-19T09:33:37;12.00;99.90
37340;DHT22;23223;51.006;7.610;2023-11-19T09:36:03;11.90;99.90
37340;DHT22;23223;51.006;7.610;2023-11-19T09:38:29;11.80;99.90
37340;DHT22;23223;51.006;7.610;2023-11-19T09:40:54;11.90;99.90
37340;DHT22;23223;51.006;7.610;2023-11-19T09:43:20;11.90;99.90
37340;DHT22;23223;51.006;7.610;2023-11-19T09:45:50;11.90;99.90
37340;DHT22;23223;51.006;7.610;2023-11-19T09:48:19;12.00;99.90
37340;DHT22;23223;51.006;7.610;2023-11-19T09:50:48;12.30;99.90
37340;DHT22;23223;51.006;7.610;2023-11-19T09:53:15;12.30;99.90
37340;DHT22;23223;51.006;7.610;2023-11-19T09:55:41;12.30;99.90
37340;DHT22;23223;51.006;7.610;2023-11-19T09:58:07;12.30;99.90
37340;DHT22;23223;51.006;7.610;2023-11-19T10:00:33;12.30;99.90
37340;DHT22;23223;51.006;7.610;2023-11-19T10:03:00;12.30;99.90
37340;DHT22;23223;51.006;7.610;2023-11-19T10:05:26;12.40;99.90
37340;DHT22;23223;51.006;7.610;2023-11-19T10:07:52;12.60;99.90
37340;DHT22;23223;51.006;7.610;2023-11-19T10:10:18;12.70;99.90
37340;DHT22;23223;51.006;7.610;2023-11-19T10:12:47;12.80;99.90
37340;DHT22;23223;51.006;7.610;2023-11-19T10:15:20;12.70;99.90
37340;DHT22;23223;51.006;7.610;2023-11-19T10:17:47;12.70;99.90
37340;DHT22;23223;51.006;7.610;2023-11-19T10:20:13;12.70;99.90
37340;DHT22;23223;51.006;7.610;2023-11-19T10:22:39;12.70;99.90
37340;DHT22;23223;51.006;7.610;2023-11-19T10:25:24;12.50;99.90
37340;DHT22;23223;51.006;7.610;2023-11-19T10:27:54;12.50;99.90
37340;DHT22;23223;51.006;7.610;2023-11-19T10:30:27;12.40;99.90
37340;DHT22;23223;51.006;7.610;2023-11-19T10:33:03;12.40;99.90
37340;DHT22;23223;51.006;7.610;2023-11-19T10:35:32;12.30;99.90
37340;DHT22;23223;51.006;7.610;2023-11-19T10:38:00;12.30;99.90
37340;DHT22;23223;51.006;7.610;2023-11-19T10:40:38;12.40;99.90
37340;DHT22;23223;51.006;7.610;2023-11-19T10:43:05;12.60;99.90
37340;DHT22;23223;51.006;7.610;2023-11-19T10:45:33;12.80;99.90
37340;DHT22;23223;51.006;7.610;2023-11-19T10:47:59;13.10;99.90
37340;DHT22;23223;51.006;7.610;2023-11-19T10:50:28;13.20;99.90
37340;DHT22;23223;51.006;7.610;2023-11-19T10:52:57;13.00;99.90
37340;DHT22;23223;51.006;7.610;2023-11-19T10:55:29;12.80;99.90
37340;DHT22;23223;51.006;7.610;2023-11-19T10:58:02;12.70;99.90
37340;DHT22;23223;51.006;7.610;2023-11-19T11:00:30;12.50;99.90
37340;DHT22;23223;51.006;7.610;2023-11-19T11:03:01;12.40;99.90
37340;DHT22;23223;51.006;7.610;2023-11-19T11:05:32;12.40;99.90
37340;DHT22;23223;51.006;7.610;2023-11-19T11:08:00;12.40;99.90
37340;DHT22;23223;51.006;7.610;2023-11-19T11:10:27;12.40;99.90
37340;DHT22;23223;51.006;7.610;2023-11-19T11:12:55;12.40;99.90
37340;DHT22;23223;51.006;7.610;2023-11-19T11:15:27;12.40;99.90
37340;DHT22;23223;51.006;7.610;2023-11-19T11:17:59;12.40;99.90
37340;DHT22;23223;51.006;7.610;2023-11-19T11:20:25;12.40;99.90
37340;DHT22;23223;51.006;7.610;2023-11-19T11:23:14;12.50;99.90
37340;DHT22;23223;51.006;7.610;2023-11-19T11:25:51;12.50;99.90
37340;DHT22;23223;51.006;7.610;2023-11-19T11:31:24;12.70;99.90
37340;DHT22;23223;51.006;7.610;2023-11-19T11:39:22;12.50;99.90
37340;DHT22;23223;51.006;7.610;2023-11-19T11:41:47;12.50;99.90
37340;DHT22;23223;51.006;7.610;2023-11-19T11:45:02;12.40;99.90
37340;DHT22;23223;51.006;7.610;2023-11-19T11:50:13;12.40;99.90
37340;DHT22;23223;51.006;7.610;2023-11-19T11:57:57;12.20;99.90
37340;DHT22;23223;51.006;7.610;2023-11-19T12:02:59;12.10;99.90
37340;DHT22;23223;51.006;7.610;2023-11-19T12:05:25;12.10;99.90
37340;DHT22;23223;51.006;7.610;2023-11-19T12:08:01;12.10;99.90
37340;DHT22;23223;51.006;7.610;2023-11-19T12:10:30;12.10;99.90
37340;DHT22;23223;51.006;7.610;2023-11-19T12:13:00;12.10;99.90
37340;DHT22;23223;51.006;7.610;2023-11-19T12:15:26;12.20;99.90
37340;DHT22;23223;51.006;7.610;2023-11-19T12:17:53;12.10;99.90
37340;DHT22;23223;51.006;7.610;2023-11-19T12:20:25;12.20;99.90
37340;DHT22;23223;51.006;7.610;2023-11-19T12:22:51;12.30;99.90
37340;DHT22;23223;51.006;7.610;2023-11-19T12:25:18;13.00;99.90
37340;DHT22;23223;51.006;7.610;2023-11-19T12:27:51;13.80;99.90
37340;DHT22;23223;51.006;7.610;2023-11-19T12:30:24;14.70;99.90
37340;DHT22;23223;51.006;7.610;2023-11-19T12:32:50;15.10;99.90
37340;DHT22;23223;51.006;7.610;2023-11-19T12:35:16;15.40;99.90
37340;DHT22;23223;51.006;7.610;2023-11-19T12:37:49;15.80;99.90
37340;DHT22;23223;51.006;7.610;2023-11-19T12:40:20;15.90;99.90
37340;DHT22;23223;51.006;7.610;2023-11-19T12:42:50;15.50;99.90
37340;DHT22;23223;51.006;7.610;2023-11-19T12:45:17;15.00;99.90
37340;DHT22;23223;51.006;7.610;2023-11-19T12:47:44;14.40;99.90
37340;DHT22;23223;51.006;7.610;2023-11-19T12:50:12;14.10;99.90
37340;DHT22;23223;51.006;7.610;2023-11-19T12:52:38;13.70;99.90
37340;DHT22;23223;51.006;7.610;2023-11-19T12:55:29;13.50;99.90
37340;DHT22;23223;51.006;7.610;2023-11-19T12:57:55;13.30;99.90
37340;DHT22;23223;51.006;7.610;2023-11-19T13:00:23;13.10;99.90
37340;DHT22;23223;51.006;7.610;2023-11-19T13:02:56;12.90;99.90
37340;DHT22;23223;51.006;7.610;2023-11-19T13:05:29;12.70;99.90
37340;DHT22;23223;51.006;7.610;2023-11-19T13:08:07;12.50;99.90
37340;DHT22;23223;51.006;7.610;2023-11-19T13:10:50;12.40;99.90
37340;DHT22;23223;51.006;7.610;2023-11-19T13:13:17;12.30;99.90
37340;DHT22;23223;51.006;7.610;2023-11-19T13:15:43;12.20;99.90
37340;DHT22;23223;51.006;7.610;2023-11-19T13:18:10;12.10;99.90
37340;DHT22;23223;51.006;7.610;2023-11-19T13:20:36;12.00;99.90
37340;DHT22;23223;51.006;7.610;2023-11-19T13:23:03;12.00;99.90
37340;DHT22;23223;51.006;7.610;2023-11-19T13:25:30;12.00;99.90
37340;DHT22;23223;51.006;7.610;2023-11-19T13:27:56;12.00;99.90
37340;DHT22;23223;51.006;7.610;2023-11-19T13:30:23;11.90;99.90
37340;DHT22;23223;51.006;7.610;2023-11-19T13:32:50;11.90;99.90
37340;DHT22;23223;51.006;7.610;2023-11-19T13:35:16;11.90;99.90
37340;DHT22;23223;51.006;7.610;2023-11-19T13:37:45;11.90;99.90
37340;DHT22;23223;51.006;7.610;2023-11-19T13:40:11;11.90;99.90
37340;DHT22;23223;51.006;7.610;2023-11-19T13:42:42;11.80;99.90
37340;DHT22;23223;51.006;7.610;2023-11-19T13:45:12;11.70;99.90
37340;DHT22;23223;51.006;7.610;2023-11-19T13:47:43;11.70;99.90
37340;DHT22;23223;51.006;7.610;2023-11-19T13:50:12;11.80;99.90
37340;DHT22;23223;51.006;7.610;2023-11-19T13:52:38;11.70;99.90
37340;DHT22;23223;51.006;7.610;2023-11-19T13:55:06;11.60;99.90
37340;DHT22;23223;51.006;7.610;2023-11-19T13:57:32;11.60;99.90
37340;DHT22;23223;51.006;7.610;2023-11-19T13:59:58;11.50;99.90
37340;DHT22;23223;51.006;7.610;2023-11-19T14:02:23;11.50;99.90
37340;DHT22;23223;51.006;7.610;2023-11-19T14:04:49;11.50;99.90
37340;DHT22;23223;51.006;7.610;2023-11-19T14:07:15;11.40;99.90
37340;DHT22;23223;51.006;7.610;2023-11-19T14:09:42;11.50;99.90
37340;DHT22;23223;51.006;7.610;2023-11-19T14:12:08;11.40;99.90
37340;DHT22;23223;51.006;7.610;2023-11-19T14:14:35;11.40;99.90
37340;DHT22;23223;51.006;7.610;2023-11-19T14:17:02;11.40;99.90
37340;DHT22;23223;51.006;7.610;2023-11-19T14:19:30;11.40;99.90
37340;DHT22;23223;51.006;7.610;2023-11-19T14:21:56;11.40;99.90
37340;DHT22;23223;51.006;7.610;2023-11-19T14:24:21;11.30;99.90
37340;DHT22;23223;51.006;7.610;2023-11-19T14:26:47;11.30;99.90
37340;DHT22;23223;51.006;7.610;2023-11-19T14:29:14;11.30;99.90
37340;DHT22;23223;51.006;7.610;2023-11-19T14:31:39;11.40;99.90
37340;DHT22;23223;51.006;7.610;2023-11-19T14:34:05;11.30;99.90
37340;DHT22;23223;51.006;7.610;2023-11-19T14:36:31;11.40;99.90
37340;DHT22;23223;51.006;7.610;2023-11-19T14:38:56;11.40;99.90
37340;DHT22;23223;51.006;7.610;2023-11-19T14:41:24;11.40;99.90
37340;DHT22;23223;51.006;7.610;2023-11-19T14:43:49;11.40;99.90
37340;DHT22;23223;51.006;7.610;2023-11-19T14:46:15;11.40;99.90
37340;DHT22;23223;51.006;7.610;2023-11-19T14:48:40;11.40;99.90
37340;DHT22;23223;51.006;7.610;2023-11-19T14:51:06;11.40;99.90
37340;DHT22;23223;51.006;7.610;2023-11-19T14:53:32;11.40;99.90
37340;DHT22;23223;51.006;7.610;2023-11-19T14:55:58;11.40;99.90
37340;DHT22;23223;51.006;7.610;2023-11-19T14:58:24;11.40;99.90
37340;DHT22;23223;51.006;7.610;2023-11-19T15:00:52;11.30;99.90
37340;DHT22;23223;51.006;7.610;2023-11-19T15:03:18;11.30;99.90
37340;DHT22;23223;51.006;7.610;2023-11-19T15:05:45;11.30;99.90
37340;DHT22;23223;51.006;7.610;2023-11-19T15:08:13;11.20;99.90
37340;DHT22;23223;51.006;7.610;2023-11-19T15:10:42;11.10;99.90
37340;DHT22;23223;51.006;7.610;2023-11-19T15:13:07;11.00;99.90
37340;DHT22;23223;51.006;7.610;2023-11-19T15:15:34;11.00;99.90
37340;DHT22;23223;51.006;7.610;2023-11-19T15:18:00;10.90;99.90
37340;DHT22;23223;51.006;7.610;2023-11-19T15:20:26;10.90;99.90
37340;DHT22;23223;51.006;7.610;2023-11-19T15:22:55;10.90;99.90
37340;DHT22;23223;51.006;7.610;2023-11-19T15:25:21;10.90;99.90
37340;DHT22;23223;51.006;7.610;2023-11-19T15:27:48;11.00;99.90
37340;DHT22;23223;51.006;7.610;2023-11-19T15:30:14;11.10;99.90
37340;DHT22;23223;51.006;7.610;2023-11-19T15:32:41;11.10;99.90
37340;DHT22;23223;51.006;7.610;2023-11-19T15:35:08;11.10;99.90
37340;DHT22;23223;51.006;7.610;2023-11-19T15:37:34;11.10;99.90
37340;DHT22;23223;51.006;7.610;2023-11-19T15:40:00;11.00;99.90
37340;DHT22;23223;51.006;7.610;2023-11-19T15:42:26;11.00;99.90
37340;DHT22;23223;51.006;7.610;2023-11-19T15:44:51;10.90;99.90
37340;DHT22;23223;51.006;7.610;2023-11-19T15:47:17;11.00;99.90
37340;DHT22;23223;51.006;7.610;2023-11-19T15:49:42;11.00;99.90
37340;DHT22;23223;51.006;7.610;2023-11-19T15:52:08;11.00;99.90